Time;durP1;ratioP1;P1;durP2;ratioP2;P2;SDS_P1;SDS_P2;PMS_P1;PMS_P2;Temp;Humidity;BMP_temperature;BMP_pressure;BME280_temperature;BME280_humidity;BME280_pressure;Samples;Min_cycle;Max_cycle;Signal;HPM_P1;HPM_P2
2022/07/16 00:02:52;;;;;;;2.85;1.63;;;;;;;;;;6287949;22;20788;-81
2022/07/16 00:05:19;;;;;;;10.30;2.08;;;;;;;;;;6288966;22;20713;-81
2022/07/16 00:07:46;;;;;;;3.05;1.40;;;;;;;;;;6289905;22;20023;-81
2022/07/16 00:10:13;;;;;;;3.92;1.60;;;;;;;;;;6289669;22;20072;-83
2022/07/16 00:12:40;;;;;;;3.75;1.77;;;;;;;;;;6289746;22;20903;-81
2022/07/16 00:15:08;;;;;;;3.67;1.85;;;;;;;;;;6290538;22;20024;-83
2022/07/16 00:17:35;;;;;;;4.30;1.70;;;;;;;;;;6289262;22;20012;-81
2022/07/16 00:20:04;;;;;;;2.53;1.60;;;;;;;;;;6290314;22;20027;-82
2022/07/16 00:22:31;;;;;;;2.47;1.50;;;;;;;;;;6290193;22;20004;-81
2022/07/16 00:24:58;;;;;;;4.18;1.67;;;;;;;;;;6289800;22;20028;-82
2022/07/16 00:27:25;;;;;;;3.75;1.65;;;;;;;;;;6290382;22;20942;-82
2022/07/16 00:29:52;;;;;;;4.95;1.40;;;;;;;;;;6289807;22;20027;-82
2022/07/16 00:32:19;;;;;;;4.82;1.73;;;;;;;;;;6290048;22;20020;-81
2022/07/16 00:34:46;;;;;;;2.03;1.30;;;;;;;;;;6290436;22;20016;-81
2022/07/16 00:37:13;;;;;;;5.18;1.70;;;;;;;;;;6291141;22;20027;-82
2022/07/16 00:39:41;;;;;;;3.42;1.58;;;;;;;;;;6290166;22;20024;-82
2022/07/16 00:42:08;;;;;;;2.60;1.77;;;;;;;;;;6292045;22;20025;-81
2022/07/16 00:44:35;;;;;;;3.53;1.73;;;;;;;;;;6290232;22;20016;-81
2022/07/16 00:47:02;;;;;;;6.30;1.70;;;;;;;;;;6289765;22;20012;-81
2022/07/16 00:49:29;;;;;;;3.85;1.85;;;;;;;;;;6290871;22;20081;-82
2022/07/16 00:51:59;;;;;;;6.78;1.80;;;;;;;;;;6290906;22;20859;-82
2022/07/16 00:54:26;;;;;;;6.00;1.83;;;;;;;;;;6289847;22;20035;-82
2022/07/16 00:56:53;;;;;;;2.58;1.60;;;;;;;;;;6289373;22;20697;-81
2022/07/16 00:59:21;;;;;;;5.15;2.00;;;;;;;;;;6289690;22;20024;-81
2022/07/16 01:01:48;;;;;;;3.42;1.60;;;;;;;;;;6287353;22;20035;-82
2022/07/16 01:04:15;;;;;;;3.83;1.70;;;;;;;;;;6287780;22;20023;-82
2022/07/16 01:06:44;;;;;;;3.83;1.70;;;;;;;;;;6287957;22;20061;-83
2022/07/16 01:09:12;;;;;;;3.58;1.80;;;;;;;;;;6287588;22;20080;-82
2022/07/16 01:11:39;;;;;;;4.15;1.70;;;;;;;;;;6287949;22;20840;-82
2022/07/16 01:14:07;;;;;;;4.40;1.83;;;;;;;;;;6286123;22;20021;-82
2022/07/16 01:16:35;;;;;;;3.72;1.80;;;;;;;;;;6287915;22;20017;-81
2022/07/16 01:19:02;;;;;;;5.93;1.85;;;;;;;;;;6290371;22;20028;-82
2022/07/16 01:21:29;;;;;;;5.15;2.05;;;;;;;;;;6291137;22;20113;-82
2022/07/16 01:23:56;;;;;;;8.32;1.80;;;;;;;;;;6293399;22;20785;-82
2022/07/16 01:26:23;;;;;;;3.78;1.50;;;;;;;;;;6295693;22;20020;-82
2022/07/16 01:28:50;;;;;;;3.10;1.70;;;;;;;;;;6298255;22;20035;-83
2022/07/16 01:31:18;;;;;;;5.72;1.80;;;;;;;;;;6293764;22;20024;-81
2022/07/16 01:34:24;;;;;;;4.18;1.70;;;;;;;;;;6291400;22;20091;-82
2022/07/16 01:36:32;;;;;;;3.42;1.67;;;;;;;;;;6290765;22;20078;-82
2022/07/16 01:38:59;;;;;;;5.70;2.00;;;;;;;;;;6291627;22;20008;-81
2022/07/16 01:41:27;;;;;;;3.28;1.58;;;;;;;;;;6291837;22;20024;-82
2022/07/16 01:43:56;;;;;;;5.18;1.90;;;;;;;;;;6291027;22;20046;-83
2022/07/16 01:46:23;;;;;;;3.67;1.88;;;;;;;;;;6289944;22;20048;-83
2022/07/16 01:48:50;;;;;;;3.97;1.73;;;;;;;;;;6289625;22;20008;-83
2022/07/16 01:51:17;;;;;;;2.00;1.70;;;;;;;;;;6289034;22;20024;-82
2022/07/16 01:53:44;;;;;;;3.20;1.67;;;;;;;;;;6288164;22;20052;-82
2022/07/16 01:56:11;;;;;;;3.63;1.73;;;;;;;;;;6287490;22;20892;-81
2022/07/16 01:58:39;;;;;;;3.72;1.83;;;;;;;;;;6288476;22;20395;-82
2022/07/16 02:01:09;;;;;;;4.45;1.75;;;;;;;;;;6285507;22;20024;-82
2022/07/16 02:03:36;;;;;;;4.32;1.73;;;;;;;;;;6285956;22;20024;-82
2022/07/16 02:06:03;;;;;;;4.97;1.85;;;;;;;;;;6286143;22;20024;-83
2022/07/16 02:08:30;;;;;;;6.60;2.33;;;;;;;;;;6286213;22;20090;-82
2022/07/16 02:10:57;;;;;;;2.15;1.70;;;;;;;;;;6285227;22;20091;-82
2022/07/16 02:13:24;;;;;;;3.63;1.95;;;;;;;;;;6284986;22;20063;-81
2022/07/16 02:15:52;;;;;;;5.03;1.80;;;;;;;;;;6283591;22;20019;-82
2022/07/16 02:18:19;;;;;;;7.20;2.70;;;;;;;;;;6284688;22;20864;-82
2022/07/16 02:20:49;;;;;;;7.47;2.47;;;;;;;;;;6286086;22;20370;-81
2022/07/16 02:23:16;;;;;;;3.65;2.13;;;;;;;;;;6282872;22;20020;-82
2022/07/16 02:25:46;;;;;;;5.63;1.98;;;;;;;;;;6285010;22;20012;-82
2022/07/16 02:28:13;;;;;;;4.20;2.00;;;;;;;;;;6285021;22;20037;-82
2022/07/16 02:30:42;;;;;;;5.43;2.40;;;;;;;;;;6284423;22;20020;-82
2022/07/16 02:33:10;;;;;;;6.00;2.38;;;;;;;;;;6282517;22;20016;-82
2022/07/16 02:35:38;;;;;;;6.53;2.40;;;;;;;;;;6285532;22;20095;-82
2022/07/16 02:38:09;;;;;;;4.95;2.60;;;;;;;;;;6285453;22;20028;-81
2022/07/16 02:40:37;;;;;;;6.47;2.42;;;;;;;;;;6285477;22;20103;-82
2022/07/16 02:43:06;;;;;;;3.58;2.28;;;;;;;;;;6285451;22;20845;-82
2022/07/16 02:45:34;;;;;;;5.78;2.30;;;;;;;;;;6284967;22;20020;-83
2022/07/16 02:48:01;;;;;;;6.90;2.50;;;;;;;;;;6285423;22;20064;-82
2022/07/16 02:50:29;;;;;;;4.85;2.42;;;;;;;;;;6285530;22;20094;-82
2022/07/16 02:52:56;;;;;;;5.88;2.60;;;;;;;;;;6285205;22;20099;-83
2022/07/16 02:55:26;;;;;;;4.97;2.50;;;;;;;;;;6282988;22;20024;-82
2022/07/16 02:57:53;;;;;;;4.38;2.13;;;;;;;;;;6285080;22;20024;-81
2022/07/16 03:00:21;;;;;;;4.68;2.47;;;;;;;;;;6283939;22;20016;-81
2022/07/16 03:02:55;;;;;;;4.72;2.60;;;;;;;;;;6285103;22;20035;-82
2022/07/16 03:05:23;;;;;;;5.10;3.00;;;;;;;;;;6282166;22;20020;-82
2022/07/16 03:07:50;;;;;;;5.60;2.70;;;;;;;;;;6282559;22;20047;-81
2022/07/16 03:10:20;;;;;;;7.63;2.60;;;;;;;;;;6281112;22;20016;-81
2022/07/16 03:12:47;;;;;;;4.80;2.53;;;;;;;;;;6280284;22;20043;-81
2022/07/16 03:15:15;;;;;;;4.78;2.72;;;;;;;;;;6281333;22;20028;-82
2022/07/16 03:17:45;;;;;;;7.72;3.00;;;;;;;;;;6282271;22;20008;-81
2022/07/16 03:20:13;;;;;;;5.63;2.83;;;;;;;;;;6282277;22;20028;-82
2022/07/16 03:22:44;;;;;;;12.82;3.20;;;;;;;;;;6281951;22;20051;-81
2022/07/16 03:25:11;;;;;;;9.35;3.15;;;;;;;;;;6279730;22;20097;-82
2022/07/16 03:27:38;;;;;;;5.35;2.90;;;;;;;;;;6282102;22;20112;-83
2022/07/16 03:30:05;;;;;;;9.52;3.17;;;;;;;;;;6280200;22;20080;-81
2022/07/16 03:32:35;;;;;;;5.68;3.65;;;;;;;;;;6282380;22;20119;-84
2022/07/16 03:35:09;;;;;;;4.90;3.10;;;;;;;;;;6282065;22;20016;-82
2022/07/16 03:40:22;;;;;;;6.55;2.95;;;;;;;;;;6281400;22;20104;-82
2022/07/16 03:42:49;;;;;;;9.80;2.85;;;;;;;;;;6280702;22;20020;-81
2022/07/16 03:45:16;;;;;;;6.07;2.97;;;;;;;;;;6280358;22;20031;-82
2022/07/16 03:47:43;;;;;;;8.07;3.13;;;;;;;;;;6281570;22;20107;-82
2022/07/16 03:50:11;;;;;;;9.15;3.08;;;;;;;;;;6280336;22;20099;-82
2022/07/16 03:52:43;;;;;;;7.25;3.08;;;;;;;;;;6281365;22;20054;-81
2022/07/16 03:55:10;;;;;;;6.75;3.08;;;;;;;;;;6281933;22;20560;-82
2022/07/16 03:57:40;;;;;;;8.55;3.13;;;;;;;;;;6281450;22;20095;-82
2022/07/16 04:00:08;;;;;;;6.93;3.13;;;;;;;;;;6281260;22;20028;-81
2022/07/16 04:02:36;;;;;;;6.82;3.10;;;;;;;;;;6282358;22;20103;-81
2022/07/16 04:05:05;;;;;;;9.32;3.33;;;;;;;;;;6282428;22;20026;-83
2022/07/16 04:07:33;;;;;;;8.70;2.92;;;;;;;;;;6282000;22;20094;-82
2022/07/16 04:10:00;;;;;;;6.22;2.67;;;;;;;;;;6282627;22;20201;-82
2022/07/16 04:12:27;;;;;;;5.95;3.00;;;;;;;;;;6282462;22;20056;-82
2022/07/16 04:14:54;;;;;;;5.93;2.80;;;;;;;;;;6282448;22;20099;-85
2022/07/16 04:17:21;;;;;;;11.05;3.00;;;;;;;;;;6282921;22;20844;-81
2022/07/16 04:19:50;;;;;;;10.10;2.78;;;;;;;;;;6282364;22;20103;-81
2022/07/16 04:22:17;;;;;;;6.45;2.78;;;;;;;;;;6284773;22;20004;-82
2022/07/16 04:24:44;;;;;;;8.65;2.83;;;;;;;;;;6285244;22;20961;-82
2022/07/16 04:27:11;;;;;;;6.47;2.58;;;;;;;;;;6283398;22;20024;-82
2022/07/16 04:29:41;;;;;;;9.35;3.13;;;;;;;;;;6282052;22;20078;-82
2022/07/16 04:32:11;;;;;;;6.70;2.47;;;;;;;;;;6283294;22;20070;-82
2022/07/16 04:34:38;;;;;;;5.95;2.25;;;;;;;;;;6283616;22;20028;-82
2022/07/16 04:37:08;;;;;;;6.35;2.28;;;;;;;;;;6282839;22;20035;-82
2022/07/16 04:39:38;;;;;;;5.85;2.42;;;;;;;;;;6283599;22;20103;-82
2022/07/16 04:42:11;;;;;;;4.63;2.20;;;;;;;;;;6284784;22;20074;-82
2022/07/16 04:44:43;;;;;;;4.47;2.00;;;;;;;;;;6283419;22;20012;-82
2022/07/16 04:47:10;;;;;;;7.87;2.20;;;;;;;;;;6285577;22;20059;-81
2022/07/16 04:49:40;;;;;;;6.10;2.08;;;;;;;;;;6286556;22;20051;-82
2022/07/16 04:52:07;;;;;;;5.95;1.70;;;;;;;;;;6303946;22;20035;-84
2022/07/16 04:54:36;;;;;;;7.05;1.83;;;;;;;;;;6308997;22;20012;-85
2022/07/16 04:57:03;;;;;;;3.92;1.60;;;;;;;;;;6308873;22;20008;-85
2022/07/16 04:59:30;;;;;;;3.60;1.65;;;;;;;;;;6299807;22;20020;-83
2022/07/16 05:04:43;;;;;;;2.50;1.40;;;;;;;;;;6294665;22;20005;-85
2022/07/16 05:07:10;;;;;;;5.60;1.67;;;;;;;;;;6309321;22;19996;-84
2022/07/16 05:09:40;;;;;;;6.25;1.40;;;;;;;;;;6309347;22;20004;-85
2022/07/16 05:12:07;;;;;;;6.20;1.50;;;;;;;;;;6308407;22;20020;-84
2022/07/16 05:14:34;;;;;;;2.65;1.20;;;;;;;;;;6295123;22;20020;-82
2022/07/16 05:17:01;;;;;;;4.85;1.50;;;;;;;;;;6285258;22;20467;-82
2022/07/16 05:19:30;;;;;;;2.78;1.30;;;;;;;;;;6284089;22;20098;-82
2022/07/16 05:21:58;;;;;;;5.28;1.45;;;;;;;;;;6283464;22;20027;-82
2022/07/16 05:24:25;;;;;;;6.55;1.85;;;;;;;;;;6284330;22;20008;-82
2022/07/16 05:26:54;;;;;;;3.72;1.10;;;;;;;;;;6284196;22;20020;-83
2022/07/16 05:29:21;;;;;;;5.25;1.40;;;;;;;;;;6283546;22;20055;-83
2022/07/16 05:31:48;;;;;;;6.70;1.35;;;;;;;;;;6284364;22;20042;-82
2022/07/16 05:34:15;;;;;;;4.75;1.45;;;;;;;;;;6287439;22;20067;-83
2022/07/16 05:36:43;;;;;;;6.82;1.67;;;;;;;;;;6290633;22;20806;-82
2022/07/16 05:39:16;;;;;;;7.50;1.33;;;;;;;;;;6287339;22;20015;-82
2022/07/16 05:41:46;;;;;;;4.20;1.38;;;;;;;;;;6288953;22;20023;-83
2022/07/16 05:44:13;;;;;;;8.60;1.73;;;;;;;;;;6291208;22;20670;-83
2022/07/16 05:46:40;;;;;;;7.57;1.40;;;;;;;;;;6292692;22;20071;-84
2022/07/16 05:49:09;;;;;;;5.85;1.58;;;;;;;;;;6290399;22;20020;-83
2022/07/16 05:51:39;;;;;;;4.32;1.27;;;;;;;;;;6287138;22;20035;-82
2022/07/16 05:54:06;;;;;;;3.35;1.17;;;;;;;;;;6284887;22;20047;-82
2022/07/16 05:56:33;;;;;;;6.78;1.55;;;;;;;;;;6284503;22;20028;-82
2022/07/16 05:59:04;;;;;;;6.25;1.40;;;;;;;;;;6283217;22;20020;-82
2022/07/16 06:01:31;;;;;;;5.07;1.42;;;;;;;;;;6284545;22;20013;-82
2022/07/16 06:03:58;;;;;;;5.72;1.70;;;;;;;;;;6285243;22;20036;-82
2022/07/16 06:06:26;;;;;;;3.17;0.98;;;;;;;;;;6285510;22;20028;-83
2022/07/16 06:08:55;;;;;;;5.60;1.52;;;;;;;;;;6285489;22;20054;-82
2022/07/16 06:11:23;;;;;;;3.03;1.05;;;;;;;;;;6287362;22;20102;-84
2022/07/16 06:13:50;;;;;;;2.90;1.23;;;;;;;;;;6285672;22;20016;-82
2022/07/16 06:16:19;;;;;;;4.90;1.60;;;;;;;;;;6282878;22;20035;-82
2022/07/16 06:18:47;;;;;;;7.00;1.30;;;;;;;;;;6284170;22;20074;-82
2022/07/16 06:21:14;;;;;;;7.00;1.52;;;;;;;;;;6287980;22;20068;-83
2022/07/16 06:23:41;;;;;;;5.32;1.60;;;;;;;;;;6288900;22;20020;-82
2022/07/16 06:26:09;;;;;;;5.65;1.27;;;;;;;;;;6288060;22;20118;-82
2022/07/16 06:28:36;;;;;;;7.47;1.20;;;;;;;;;;6288840;22;20082;-83
2022/07/16 06:31:06;;;;;;;7.70;1.70;;;;;;;;;;6287539;22;20587;-83
2022/07/16 06:33:33;;;;;;;11.90;1.45;;;;;;;;;;6288113;22;20024;-82
2022/07/16 06:36:00;;;;;;;4.53;1.17;;;;;;;;;;6288754;22;20015;-82
2022/07/16 06:38:27;;;;;;;3.58;1.42;;;;;;;;;;6288378;22;20472;-83
2022/07/16 06:40:54;;;;;;;4.82;1.13;;;;;;;;;;6287438;22;20020;-83
2022/07/16 06:43:21;;;;;;;5.28;1.27;;;;;;;;;;6287410;22;20008;-82
2022/07/16 06:45:49;;;;;;;6.07;1.45;;;;;;;;;;6287439;22;20028;-82
2022/07/16 06:48:16;;;;;;;9.70;1.65;;;;;;;;;;6288501;22;20016;-83
2022/07/16 06:50:46;;;;;;;5.10;1.25;;;;;;;;;;6285389;22;20733;-81
2022/07/16 06:53:13;;;;;;;3.53;1.17;;;;;;;;;;6286311;22;20692;-83
2022/07/16 06:55:41;;;;;;;4.07;1.10;;;;;;;;;;6285364;22;20024;-82
2022/07/16 06:58:09;;;;;;;5.70;1.45;;;;;;;;;;6286793;22;20013;-82
2022/07/16 07:00:36;;;;;;;11.30;1.27;;;;;;;;;;6284044;22;20066;-83
2022/07/16 07:03:06;;;;;;;5.10;1.27;;;;;;;;;;6285716;22;20031;-83
2022/07/16 07:05:33;;;;;;;7.90;1.10;;;;;;;;;;6284011;22;20028;-82
2022/07/16 07:08:02;;;;;;;5.85;1.10;;;;;;;;;;6279896;22;20052;-84
2022/07/16 07:10:30;;;;;;;3.67;1.15;;;;;;;;;;6278928;22;20020;-82
2022/07/16 07:12:57;;;;;;;2.45;0.82;;;;;;;;;;6279308;22;20024;-84
2022/07/16 07:15:24;;;;;;;4.53;1.15;;;;;;;;;;6280783;22;20032;-83
2022/07/16 07:17:54;;;;;;;3.95;1.08;;;;;;;;;;6282470;22;20074;-84
2022/07/16 07:20:21;;;;;;;3.67;0.90;;;;;;;;;;6285224;22;20028;-83
2022/07/16 07:22:52;;;;;;;3.42;1.00;;;;;;;;;;6282501;22;20099;-84
2022/07/16 07:25:19;;;;;;;6.90;1.25;;;;;;;;;;6282020;22;20753;-82
2022/07/16 07:27:49;;;;;;;5.60;1.23;;;;;;;;;;6281744;22;20021;-84
2022/07/16 07:30:16;;;;;;;6.22;1.52;;;;;;;;;;6279910;22;20078;-83
2022/07/16 07:32:44;;;;;;;6.13;1.77;;;;;;;;;;6279251;22;20067;-83
2022/07/16 07:35:11;;;;;;;3.92;1.42;;;;;;;;;;6287013;22;20035;-83
2022/07/16 07:37:39;;;;;;;7.07;1.20;;;;;;;;;;6293183;22;20795;-83
2022/07/16 07:40:06;;;;;;;4.32;1.10;;;;;;;;;;6291895;22;20008;-82
2022/07/16 07:42:33;;;;;;;6.13;1.40;;;;;;;;;;6288955;22;20031;-82
2022/07/16 07:45:05;;;;;;;7.22;1.38;;;;;;;;;;6284893;22;20028;-83
2022/07/16 07:47:33;;;;;;;4.50;1.35;;;;;;;;;;6285196;22;20457;-85
2022/07/16 07:50:03;;;;;;;7.57;1.45;;;;;;;;;;6286867;22;20078;-83
2022/07/16 07:52:30;;;;;;;5.28;1.50;;;;;;;;;;6288596;22;20082;-85
2022/07/16 07:55:00;;;;;;;3.90;1.17;;;;;;;;;;6292715;22;20008;-83
2022/07/16 07:57:27;;;;;;;5.03;1.17;;;;;;;;;;6287303;22;20012;-83
2022/07/16 07:59:54;;;;;;;3.92;1.15;;;;;;;;;;6286433;22;20074;-83
2022/07/16 08:02:24;;;;;;;4.22;1.10;;;;;;;;;;6297713;22;20768;-82
2022/07/16 08:04:54;;;;;;;5.78;1.15;;;;;;;;;;6299761;22;20068;-82
2022/07/16 08:07:21;;;;;;;2.35;1.00;;;;;;;;;;6296948;22;20032;-83
2022/07/16 08:09:58;;;;;;;4.13;0.82;;;;;;;;;;6290604;22;20017;-84
2022/07/16 08:12:26;;;;;;;3.83;1.10;;;;;;;;;;6290792;22;20903;-84
2022/07/16 08:15:02;;;;;;;4.68;1.33;;;;;;;;;;6285277;22;20035;-82
2022/07/16 08:17:36;;;;;;;6.60;1.33;;;;;;;;;;6284930;22;20020;-82
2022/07/16 08:20:11;;;;;;;4.47;1.13;;;;;;;;;;6284573;22;20022;-83
2022/07/16 08:22:38;;;;;;;3.13;1.15;;;;;;;;;;6286344;22;20503;-83
2022/07/16 08:27:59;;;;;;;5.70;1.30;;;;;;;;;;6283719;22;20752;-83
2022/07/16 08:30:27;;;;;;;4.30;1.00;;;;;;;;;;6280733;22;20024;-83
2022/07/16 08:33:25;;;;;;;6.05;1.27;;;;;;;;;;6290809;22;20046;-85
2022/07/16 08:36:04;;;;;;;6.55;1.40;;;;;;;;;;6295358;22;21089;-85
2022/07/16 08:38:55;;;;;;;5.05;1.30;;;;;;;;;;6285524;22;20024;-84
2022/07/16 08:41:27;;;;;;;5.53;1.38;;;;;;;;;;6288295;22;20012;-82
2022/07/16 08:44:02;;;;;;;5.22;1.10;;;;;;;;;;6290255;22;20016;-83
2022/07/16 08:46:32;;;;;;;4.13;1.10;;;;;;;;;;6287709;22;20765;-83
2022/07/16 08:48:59;;;;;;;4.03;0.98;;;;;;;;;;6292361;22;20016;-85
2022/07/16 08:51:42;;;;;;;4.05;1.17;;;;;;;;;;6289225;22;20016;-84
2022/07/16 08:54:21;;;;;;;7.63;1.45;;;;;;;;;;6291438;22;20032;-84
2022/07/16 08:56:55;;;;;;;6.80;1.88;;;;;;;;;;6301760;22;20024;-85
2022/07/16 08:59:30;;;;;;;5.10;1.13;;;;;;;;;;6293243;22;20100;-83
2022/07/16 09:02:21;;;;;;;;;;;;;;;;;;6283922;22;20024;-83
2022/07/16 09:04:53;;;;;;;3.90;1.25;;;;;;;;;;6282093;22;44723;-86
2022/07/16 09:07:32;;;;;;;4.80;1.02;;;;;;;;;;6285234;22;20028;-83
2022/07/16 09:10:06;;;;;;;4.88;0.98;;;;;;;;;;6286867;22;20753;-83
2022/07/16 09:12:37;;;;;;;5.13;1.02;;;;;;;;;;6289130;22;20019;-83
2022/07/16 09:15:33;;;;;;;7.15;1.30;;;;;;;;;;6286449;22;20024;-83
2022/07/16 09:18:19;;;;;;;4.63;0.90;;;;;;;;;;6282449;22;20078;-83
2022/07/16 09:20:55;;;;;;;3.40;1.30;;;;;;;;;;6280024;22;20024;-83
2022/07/16 09:23:26;;;;;;;6.70;1.00;;;;;;;;;;6281819;22;20046;-83
2022/07/16 09:25:57;;;;;;;7.07;1.10;;;;;;;;;;6282598;22;20789;-83
2022/07/16 09:28:51;;;;;;;7.03;1.05;;;;;;;;;;6283336;22;20786;-84
2022/07/16 09:31:48;;;;;;;6.22;1.33;;;;;;;;;;6281702;22;20068;-82
2022/07/16 09:34:18;;;;;;;6.78;1.25;;;;;;;;;;6267854;22;20020;-82
2022/07/16 09:37:15;;;;;;;5.80;1.40;;;;;;;;;;6279837;22;20769;-83
2022/07/16 09:39:47;;;;;;;5.18;1.02;;;;;;;;;;6268769;22;20078;-82
2022/07/16 09:42:16;;;;;;;4.63;1.10;;;;;;;;;;6282400;22;20169;-82
2022/07/16 09:44:54;;;;;;;5.47;1.13;;;;;;;;;;6281397;22;20027;-83
2022/07/16 09:47:37;;;;;;;3.22;1.30;;;;;;;;;;6282838;22;20024;-83
2022/07/16 09:50:11;;;;;;;6.97;1.10;;;;;;;;;;6280030;22;20050;-82
2022/07/16 09:52:53;;;;;;;2.53;0.90;;;;;;;;;;6281614;22;20049;-84
2022/07/16 09:55:24;;;;;;;2.15;1.00;;;;;;;;;;6285965;22;20024;-82
2022/07/16 09:58:11;;;;;;;2.80;1.00;;;;;;;;;;6287122;22;20020;-83
2022/07/16 10:00:51;;;;;;;3.35;1.08;;;;;;;;;;6282610;22;20028;-82
2022/07/16 10:03:23;;;;;;;4.78;1.08;;;;;;;;;;6286749;22;20020;-83
2022/07/16 10:06:00;;;;;;;2.88;1.02;;;;;;;;;;6285469;22;20106;-83
2022/07/16 10:09:01;;;;;;;3.67;1.10;;;;;;;;;;6284655;22;20020;-83
2022/07/16 10:11:43;;;;;;;2.08;0.73;;;;;;;;;;6277401;22;20028;-83
2022/07/16 10:14:13;;;;;;;4.35;1.10;;;;;;;;;;6278783;22;20022;-83
2022/07/16 10:17:07;;;;;;;5.10;0.85;;;;;;;;;;6278577;22;20031;-84
2022/07/16 10:19:36;;;;;;;5.82;0.90;;;;;;;;;;6279068;22;20078;-82
2022/07/16 10:22:14;;;;;;;5.15;1.00;;;;;;;;;;6280102;22;20340;-82
2022/07/16 10:24:55;;;;;;;4.15;1.20;;;;;;;;;;6279793;22;20027;-83
2022/07/16 10:27:24;;;;;;;5.57;1.23;;;;;;;;;;6278889;22;20078;-82
2022/07/16 10:30:13;;;;;;;7.07;1.13;;;;;;;;;;6280395;22;20904;-83
2022/07/16 10:33:16;;;;;;;;;;;;;;;;;;;;;
2022/07/16 10:36:04;;;;;;;3.95;0.88;;;;;;;;;;6280522;22;20131;-83
2022/07/16 10:38:34;;;;;;;5.63;1.15;;;;;;;;;;6279630;22;20135;-82
2022/07/16 10:41:20;;;;;;;3.85;0.98;;;;;;;;;;6279397;22;20046;-83
2022/07/16 10:44:09;;;;;;;4.95;1.02;;;;;;;;;;6279174;22;20485;-85
2022/07/16 10:46:50;;;;;;;5.22;0.93;;;;;;;;;;6280521;22;20047;-83
2022/07/16 10:49:18;;;;;;;7.35;1.20;;;;;;;;;;6280763;22;20043;-82
2022/07/16 10:52:05;;;;;;;4.80;1.10;;;;;;;;;;6282576;22;20078;-85
2022/07/16 10:54:39;;;;;;;6.22;1.30;;;;;;;;;;6289487;22;20008;-85
2022/07/16 10:57:10;;;;;;;4.55;1.08;;;;;;;;;;6305322;22;20003;-85
2022/07/16 10:59:42;;;;;;;2.97;0.90;;;;;;;;;;6306491;22;20074;-86
2022/07/16 11:02:13;;;;;;;5.65;1.13;;;;;;;;;;6303201;22;20023;-87
2022/07/16 11:04:55;;;;;;;3.10;1.02;;;;;;;;;;6286939;22;20024;-87
2022/07/16 11:07:36;;;;;;;4.45;1.30;;;;;;;;;;6279326;22;20107;-86
2022/07/16 11:10:08;;;;;;;3.67;1.10;;;;;;;;;;6299031;22;20072;-79
2022/07/16 11:12:40;;;;;;;4.03;0.90;;;;;;;;;;6293996;22;20788;-80
2022/07/16 11:15:08;;;;;;;7.18;1.15;;;;;;;;;;6246910;22;20009;-78
2022/07/16 11:17:35;;;;;;;6.32;1.13;;;;;;;;;;6225530;23;20013;-79
2022/07/16 11:20:08;;;;;;;2.90;1.00;;;;;;;;;;6218089;23;20810;-79
2022/07/16 11:22:36;;;;;;;7.90;1.10;;;;;;;;;;6217988;22;20072;-80
2022/07/16 11:25:05;;;;;;;4.78;1.20;;;;;;;;;;6223149;23;20021;-81
2022/07/16 11:27:39;;;;;;;10.75;1.50;;;;;;;;;;6226216;23;20794;-81
2022/07/16 11:30:10;;;;;;;3.25;0.70;;;;;;;;;;6230068;23;20021;-80
2022/07/16 11:32:48;;;;;;;4.32;1.23;;;;;;;;;;6225255;23;20025;-81
2022/07/16 11:35:16;;;;;;;7.32;1.25;;;;;;;;;;6223382;23;20774;-83
2022/07/16 11:37:54;;;;;;;4.47;1.05;;;;;;;;;;6218477;23;20024;-80
2022/07/16 11:40:37;;;;;;;3.67;1.00;;;;;;;;;;6218347;23;20055;-80
2022/07/16 11:43:05;;;;;;;4.22;1.10;;;;;;;;;;6218051;23;20015;-80
2022/07/16 11:45:45;;;;;;;4.18;1.05;;;;;;;;;;6217718;23;20734;-81
2022/07/16 11:48:19;;;;;;;5.65;1.23;;;;;;;;;;6217856;23;20020;-80
2022/07/16 11:50:48;;;;;;;3.05;0.90;;;;;;;;;;6218202;23;20386;-81
2022/07/16 11:53:28;;;;;;;4.72;1.17;;;;;;;;;;6218017;23;20033;-81
2022/07/16 11:55:55;;;;;;;4.28;1.10;;;;;;;;;;6218971;23;20466;-81
2022/07/16 11:58:27;;;;;;;6.07;1.38;;;;;;;;;;6224177;23;20064;-81
2022/07/16 12:00:55;;;;;;;4.65;1.30;;;;;;;;;;6226397;22;20692;-81
2022/07/16 12:03:28;;;;;;;4.55;1.20;;;;;;;;;;6221716;23;20017;-81
2022/07/16 12:06:05;;;;;;;4.95;1.15;;;;;;;;;;6221264;23;20021;-81
2022/07/16 12:08:36;;;;;;;3.90;1.10;;;;;;;;;;6217660;23;20043;-85
2022/07/16 12:11:06;;;;;;;5.22;1.20;;;;;;;;;;6218014;23;20017;-84
2022/07/16 12:13:38;;;;;;;6.05;1.00;;;;;;;;;;6218701;23;20019;-79
2022/07/16 12:16:11;;;;;;;11.38;1.75;;;;;;;;;;6219383;22;20029;-78
2022/07/16 12:18:39;;;;;;;4.13;1.33;;;;;;;;;;6216404;23;20052;-77
2022/07/16 12:21:26;;;;;;;4.03;1.20;;;;;;;;;;6218843;23;20021;-79
2022/07/16 12:23:53;;;;;;;5.18;1.00;;;;;;;;;;6215002;23;20021;-80
2022/07/16 12:26:30;;;;;;;7.00;1.38;;;;;;;;;;6223875;23;20013;-84
2022/07/16 12:28:58;;;;;;;9.52;1.63;;;;;;;;;;6220383;23;20037;-82
2022/07/16 12:31:27;;;;;;;6.13;1.20;;;;;;;;;;6225488;22;20024;-81
2022/07/16 12:34:02;;;;;;;4.82;1.00;;;;;;;;;;6221416;23;20091;-87
2022/07/16 12:36:34;;;;;;;6.65;1.20;;;;;;;;;;6222819;23;20107;-80
2022/07/16 12:39:06;;;;;;;4.63;1.10;;;;;;;;;;6222991;23;20025;-82
2022/07/16 12:41:39;;;;;;;4.30;1.02;;;;;;;;;;6220947;23;20099;-80
2022/07/16 12:44:25;;;;;;;4.38;1.30;;;;;;;;;;6219866;22;20021;-80
2022/07/16 12:46:53;;;;;;;1.80;1.00;;;;;;;;;;6222255;22;20033;-80
2022/07/16 12:49:29;;;;;;;3.80;1.00;;;;;;;;;;6218439;23;20017;-81
2022/07/16 12:52:00;;;;;;;6.07;1.15;;;;;;;;;;6215672;23;20025;-82
2022/07/16 12:58:47;;;;;;;2.95;1.13;;;;;;;;;;6217449;23;20017;-81
2022/07/16 13:00:04;;;;;;;5.57;1.35;;;;;;;;;;6218215;23;20029;-80
2022/07/16 13:02:32;;;;;;;8.30;1.20;;;;;;;;;;6219029;23;20542;-84
2022/07/16 13:05:02;;;;;;;6.05;1.40;;;;;;;;;;6226345;22;20025;-82
2022/07/16 13:07:48;;;;;;;4.05;1.17;;;;;;;;;;6219614;23;20029;-82
2022/07/16 13:10:15;;;;;;;5.20;1.30;;;;;;;;;;6220533;23;20028;-86
2022/07/16 13:13:00;;;;;;;6.35;1.33;;;;;;;;;;6224960;23;20021;-85
2022/07/16 13:15:28;;;;;;;5.85;1.42;;;;;;;;;;6217610;23;20025;-81
2022/07/16 13:17:57;;;;;;;4.85;1.10;;;;;;;;;;6218854;22;20821;-82
2022/07/16 13:20:25;;;;;;;3.13;1.00;;;;;;;;;;6217827;23;20056;-85
2022/07/16 13:22:55;;;;;;;5.75;1.23;;;;;;;;;;6217102;23;20060;-90
2022/07/16 13:25:30;;;;;;;6.47;1.17;;;;;;;;;;6220190;23;20017;-82
2022/07/16 13:27:58;;;;;;;9.07;1.35;;;;;;;;;;6215266;23;20403;-84
2022/07/16 13:30:27;;;;;;;7.13;1.20;;;;;;;;;;6220811;23;20104;-87
2022/07/16 13:33:00;;;;;;;4.32;1.35;;;;;;;;;;6218934;23;20052;-84
2022/07/16 13:35:33;;;;;;;4.40;1.00;;;;;;;;;;6218151;23;20029;-85
2022/07/16 13:38:00;;;;;;;4.15;1.08;;;;;;;;;;6218067;23;20009;-81
2022/07/16 13:40:28;;;;;;;4.70;1.00;;;;;;;;;;6219236;23;20021;-80
2022/07/16 13:43:00;;;;;;;5.90;1.00;;;;;;;;;;6221202;22;20930;-82
2022/07/16 13:45:29;;;;;;;6.22;1.13;;;;;;;;;;6219334;23;20021;-82
2022/07/16 13:47:56;;;;;;;5.13;1.20;;;;;;;;;;6218771;23;20029;-81
2022/07/16 13:50:32;;;;;;;7.10;1.20;;;;;;;;;;6220477;23;20021;-82
2022/07/16 13:52:59;;;;;;;3.08;1.00;;;;;;;;;;6216183;23;20028;-83
2022/07/16 13:55:27;;;;;;;4.10;1.00;;;;;;;;;;6220248;22;20017;-81
2022/07/16 14:01:23;;;;;;;7.50;1.42;;;;;;;;;;6155203;23;20025;-82
2022/07/16 14:03:51;;;;;;;5.68;1.95;;;;;;;;;;6136419;23;20085;-85
2022/07/16 14:06:21;;;;;;;7.40;1.00;;;;;;;;;;6171383;23;20810;-84
2022/07/16 14:09:04;;;;;;;2.90;0.90;;;;;;;;;;6158384;23;20029;-81
2022/07/16 14:11:43;;;;;;;4.13;1.23;;;;;;;;;;6134214;23;20022;-84
2022/07/16 14:14:20;;;;;;;5.60;1.33;;;;;;;;;;6158191;23;20061;-80
2022/07/16 14:16:47;;;;;;;4.03;1.13;;;;;;;;;;6156157;23;20022;-81
2022/07/16 14:19:21;;;;;;;4.38;1.10;;;;;;;;;;6156074;23;20904;-81
2022/07/16 14:21:48;;;;;;;6.28;1.40;;;;;;;;;;6156185;23;20077;-81
2022/07/16 14:24:15;;;;;;;6.10;1.05;;;;;;;;;;6157187;23;20069;-83
2022/07/16 14:26:48;;;;;;;3.03;0.85;;;;;;;;;;6159292;23;20097;-88
2022/07/16 14:29:15;;;;;;;;;;;;;;;;;;6163849;23;20096;-85
2022/07/16 14:31:42;;;;;;;3.60;1.00;;;;;;;;;;6186786;23;43396;-86
2022/07/16 14:34:10;;;;;;;4.60;1.20;;;;;;;;;;6219021;22;20028;-80
2022/07/16 14:36:37;;;;;;;3.80;1.08;;;;;;;;;;6220430;23;20840;-81
2022/07/16 14:39:06;;;;;;;5.28;1.05;;;;;;;;;;6217742;23;20100;-82
2022/07/16 14:41:44;;;;;;;6.88;1.40;;;;;;;;;;6218984;23;20756;-83
2022/07/16 14:44:12;;;;;;;6.72;1.17;;;;;;;;;;6216321;23;20052;-83
2022/07/16 14:46:41;;;;;;;5.75;1.20;;;;;;;;;;6218986;23;20025;-83
2022/07/16 14:49:18;;;;;;;5.38;1.10;;;;;;;;;;6217570;23;20522;-82
2022/07/16 14:52:05;;;;;;;6.03;1.30;;;;;;;;;;6219358;23;20091;-82
2022/07/16 14:54:35;;;;;;;7.35;1.15;;;;;;;;;;6220187;23;20014;-86
2022/07/16 14:57:05;;;;;;;5.05;1.23;;;;;;;;;;6219711;23;20025;-83
2022/07/16 14:59:33;;;;;;;6.22;1.63;;;;;;;;;;6220619;23;20033;-84
2022/07/16 15:02:00;;;;;;;7.95;1.80;;;;;;;;;;6219496;23;20025;-80
2022/07/16 15:04:31;;;;;;;6.25;1.50;;;;;;;;;;6217268;23;20025;-85
2022/07/16 15:07:08;;;;;;;6.97;1.27;;;;;;;;;;6217570;23;20021;-82
2022/07/16 15:09:43;;;;;;;7.68;1.65;;;;;;;;;;6222885;23;20068;-84
2022/07/16 15:12:10;;;;;;;7.03;1.50;;;;;;;;;;6216408;23;20098;-81
2022/07/16 15:14:42;;;;;;;5.57;1.45;;;;;;;;;;6218892;22;20020;-80
2022/07/16 15:17:14;;;;;;;4.10;1.20;;;;;;;;;;6219590;23;20049;-78
2022/07/16 15:19:43;;;;;;;6.18;1.42;;;;;;;;;;6218707;23;20411;-79
2022/07/16 15:22:15;;;;;;;5.93;1.48;;;;;;;;;;6214627;23;20017;-82